International Virtual Aviation Organisation

Russian Federation and Kazakhstan MCD

 

Карточка аэропорта UIII

Внимание!
Информация на этой странице в стадии наполнения.
Если вы не увидели какой-то информации, или заметили неточность - пожалуйста сообщите нам!
Спасибо!
Команда RU-STAFF
Название аэропортаИркутск
Название аэропорта (англ.)Irkutsk
Превышение1686 ft. (513.9 m.)
Координаты52°16.032', 104°23.7'
Высота перехода1100m
Эшелон переходаFL070
Коды ответчика3330-3347
Зона ОрВДИркутск РПИ (UIII)
Данные METARUIII 281230Z 06001MPS 3200 BR NSC M19/M21 Q1037 R12/CLRD60 NOSIG RMK QFE734/0979
Проноз погоды (TAF)UIII 281100Z 2812/2912 VRB01MPS 2500 BR FU NSC TEMPO 2812/2815 0500 FZFG VV001 BECMG 2815/2816 0300 FZFG VV001 TEMPO 2816/2903 5000 BR SCT004 BECMG 2903/2905 3500 -SN BR BKN011
NOTAMshow/hide NOTAM
AWOS   TABLE

Информация о ВПП

ВПП Длина ВПП (м.) Покрытие Курс ВПП Частота ILS
303565Железобетон297110.3
123565Железобетон117111.3

Диспетчерские позиции

Позывной Наименование органа УВД Частота
UIII_APPИркутск-Подход125.2
UIII_R_APPИркутск-Круг119.3
UIII_TWRИркутск-Вышка118.1
UIII_GNDИркутск-Руление121.7
UIII_FSSИркутск-Транзит128.5



Спутниковое изображение